Pagrindinis puslapis
METAR-TAF:

METAR-TAF

Oro uostai :

Rodas, Graikija

platuma: 36-24N, ilguma: 028-05E, Aukštis: 4 m

Dabartinis oras

Ataskaita buvo paskelbta 21 minutes, ne 18:20 UTC
Vėjas 1 kt nuo kintamojo kryptimis
Temperatūra 27°C
Drėgmė 42%
Slėgis 1010 hPa
Matomumas 10 km arba daugiau
nėra debesų žemiau 1500 m ir nėra kamuolinių lietaus debesų

METAR: LGRP 151820Z VRB01KT CAVOK 27/13 Q1010 NOSIG

Laikas: 21:41 (18:41 UTC)

Prognozė

Ataskaita buvo paskelbta 1 valandą ir 41 minutes, ne 17:00 UTC
Prognozė galioja nuo 15 metu 18 UTC su 16 metu 18 UTC
Vėjas 5 kt nuo kintamojo kryptimis
Matomumas 10 km arba daugiau
Mažai debesys ne aukštis 1800 ft
Tapsmas
nuo 16 metu 09 UTC su 16 metu 11 UTC
Vėjas 12 kt iš Vakarų/Šiaurės Vakarų

TAF: LGRP 151700Z 1518/1618 VRB05KT 9999 FEW018 BECMG 1609/1611 30012KT

Orai ataskaitas ir orų prognozės (METAR, TAF).

turimą stotys yra geltonos ir raudonos taškus žemėlapyje.

Perkelti pele per norėdami pamatyti stoties vardą.

Tada spustelėkite, norėdami matyti oro stebėjimo ir prognozės.

Norėdami pakeisti žemėlapį: spustelėkite ant žalios mygtukų su juodo kryžiaus žemyn,; žalią mygtuką su brūkšneliu, jei norite nutolinti; arba žalių rodyklių gretimoms žemėlapius.


METAR-TAF: